createdAt,value
2022-08-27T00:01:58.871Z,3.90
2022-08-27T00:08:02.277Z,3.78
2022-08-27T00:14:06.084Z,4.00
2022-08-27T00:20:11.251Z,4.30
2022-08-27T00:26:14.872Z,4.25
2022-08-27T00:32:19.326Z,4.28
2022-08-27T00:38:25.375Z,4.18
2022-08-27T00:44:28.890Z,3.88
2022-08-27T00:50:34.038Z,3.85
2022-08-27T00:56:44.320Z,3.70
2022-08-27T01:02:54.795Z,3.90
2022-08-27T01:08:59.717Z,3.38
2022-08-27T01:15:06.221Z,3.60
2022-08-27T01:21:15.344Z,3.22
2022-08-27T01:27:21.249Z,3.78
2022-08-27T01:33:24.868Z,3.17
2022-08-27T01:39:28.886Z,3.33
2022-08-27T01:45:35.588Z,3.92
2022-08-27T01:51:39.359Z,3.63
2022-08-27T01:57:43.167Z,3.78
2022-08-27T02:03:48.463Z,3.63
2022-08-27T02:09:52.153Z,3.92
2022-08-27T02:15:57.047Z,3.83
2022-08-27T02:22:01.896Z,3.90
2022-08-27T02:28:05.853Z,3.83
2022-08-27T02:34:09.559Z,4.30
2022-08-27T02:40:17.347Z,4.13
2022-08-27T02:46:20.798Z,3.40
2022-08-27T02:52:24.851Z,4.00
2022-08-27T02:58:29.839Z,4.05
2022-08-27T03:04:33.308Z,3.80
2022-08-27T03:10:36.738Z,4.53
2022-08-27T03:16:41.690Z,4.13
2022-08-27T03:22:45.220Z,3.65
2022-08-27T03:28:48.997Z,3.33
2022-08-27T03:34:53.739Z,3.60
2022-08-27T03:40:57.214Z,3.95
2022-08-27T03:47:01.153Z,3.83
2022-08-27T03:53:05.931Z,4.30
2022-08-27T03:59:09.413Z,4.85
2022-08-27T04:05:13.395Z,5.22
2022-08-27T04:11:18.231Z,5.38
2022-08-27T04:17:21.776Z,5.90
2022-08-27T04:23:25.205Z,4.50
2022-08-27T04:29:29.979Z,5.50
2022-08-27T04:35:33.851Z,5.25
2022-08-27T04:41:37.220Z,6.22
2022-08-27T04:47:41.965Z,5.82
2022-08-27T04:53:45.417Z,6.57
2022-08-27T04:59:48.807Z,6.30
2022-08-27T05:05:54.583Z,6.35
2022-08-27T05:11:58.468Z,6.28
2022-08-27T05:18:02.317Z,6.40
2022-08-27T05:24:08.446Z,7.70
2022-08-27T05:30:12.215Z,7.00
2022-08-27T05:36:19.772Z,7.03
2022-08-27T05:42:24.753Z,6.90
2022-08-27T05:48:28.101Z,7.10
2022-08-27T05:54:31.776Z,6.85
2022-08-27T06:01:00.395Z,7.10
2022-08-27T06:07:06.616Z,7.47
2022-08-27T06:13:10.114Z,7.85
2022-08-27T06:19:14.900Z,7.70
2022-08-27T06:25:18.346Z,8.25
2022-08-27T06:31:22.846Z,8.57
2022-08-27T06:37:27.961Z,8.63
2022-08-27T06:43:31.454Z,8.18
2022-08-27T06:49:34.804Z,7.50
2022-08-27T06:55:44.218Z,6.95
2022-08-27T07:01:48.634Z,6.00
2022-08-27T07:07:52.021Z,6.35
2022-08-27T07:13:57.224Z,6.72
2022-08-27T07:20:00.853Z,7.63
2022-08-27T07:26:04.322Z,7.10
2022-08-27T07:32:09.103Z,7.30
2022-08-27T07:38:12.730Z,7.57
2022-08-27T07:44:36.186Z,8.20
2022-08-27T07:50:41.606Z,6.95
2022-08-27T07:56:55.111Z,6.13
2022-08-27T08:02:59.121Z,5.32
2022-08-27T08:09:03.963Z,4.55
2022-08-27T08:15:08.521Z,1.48
2022-08-27T08:21:13.057Z,2.60
2022-08-27T08:27:17.807Z,2.80
2022-08-27T08:33:21.362Z,3.10
2022-08-27T08:39:25.665Z,3.08
2022-08-27T08:45:32.540Z,2.97
2022-08-27T08:51:40.462Z,2.75
2022-08-27T08:57:47.778Z,2.33
2022-08-27T09:03:54.718Z,2.45
2022-08-27T09:10:01.342Z,1.77
2022-08-27T09:16:05.788Z,1.42
2022-08-27T09:22:12.973Z,2.15
2022-08-27T09:28:34.943Z,1.63
2022-08-27T09:34:39.371Z,2.47
2022-08-27T09:40:45.286Z,2.38
2022-08-27T09:46:55.918Z,2.30
2022-08-27T09:53:01.299Z,2.30
2022-08-27T09:59:07.399Z,1.88
2022-08-27T10:05:18.433Z,2.25
2022-08-27T10:11:22.753Z,1.50
2022-08-27T10:17:29.975Z,2.28
2022-08-27T10:23:37.277Z,2.10
2022-08-27T10:29:42.705Z,1.50
2022-08-27T10:35:54.583Z,1.90
2022-08-27T10:42:02.396Z,1.65
2022-08-27T10:48:12.807Z,1.40
2022-08-27T10:54:23.807Z,1.55
2022-08-27T11:00:31.569Z,1.58
2022-08-27T11:06:37.479Z,1.58
2022-08-27T11:12:44.561Z,1.65
2022-08-27T11:18:50.910Z,1.60
2022-08-27T11:24:56.504Z,1.38
2022-08-27T11:31:04.998Z,1.40
2022-08-27T11:37:14.200Z,1.40
2022-08-27T11:43:20.061Z,1.50
2022-08-27T11:49:26.796Z,1.58
2022-08-27T11:55:32.135Z,1.10
2022-08-27T12:01:35.518Z,2.00
2022-08-27T12:07:45.022Z,1.40
2022-08-27T12:13:54.092Z,1.35
2022-08-27T12:20:03.988Z,1.40
2022-08-27T12:26:18.833Z,1.17
2022-08-27T12:32:26.755Z,1.25
2022-08-27T12:38:38.608Z,1.40
2022-08-27T12:44:43.414Z,1.10
2022-08-27T12:50:52.020Z,1.65
2022-08-27T12:57:01.216Z,1.42
2022-08-27T13:03:14.891Z,1.80
2022-08-27T13:09:18.347Z,1.60
2022-08-27T13:15:21.776Z,1.60
2022-08-27T13:21:28.314Z,2.20
2022-08-27T13:27:33.052Z,2.13
2022-08-27T13:33:37.311Z,1.90
2022-08-27T13:39:42.109Z,1.83
2022-08-27T13:45:49.840Z,1.70
2022-08-27T13:52:00.502Z,1.85
2022-08-27T13:58:13.851Z,1.80
2022-08-27T14:04:23.247Z,2.03
2022-08-27T14:10:34.445Z,1.48
2022-08-27T14:16:40.272Z,1.83
2022-08-27T14:22:43.660Z,1.63
2022-08-27T14:28:47.229Z,1.67
2022-08-27T14:34:53.317Z,1.60
2022-08-27T14:40:57.729Z,1.58
2022-08-27T14:47:03.221Z,1.25
2022-08-27T14:53:08.578Z,1.20
2022-08-27T14:59:12.647Z,1.45
2022-08-27T15:05:16.215Z,1.27
2022-08-27T15:11:23.568Z,1.45
2022-08-27T15:17:34.975Z,1.60
2022-08-27T15:23:39.285Z,1.30
2022-08-27T15:29:44.358Z,1.20
2022-08-27T15:35:47.716Z,1.38
2022-08-27T15:42:05.892Z,1.15
2022-08-27T15:48:12.848Z,1.30
2022-08-27T15:54:16.738Z,1.20
2022-08-27T16:00:22.253Z,1.33
2022-08-27T16:06:27.559Z,1.40
2022-08-27T16:12:30.961Z,1.20
2022-08-27T16:18:35.400Z,1.10
2022-08-27T16:24:40.121Z,1.48
2022-08-27T16:30:44.357Z,1.40
2022-08-27T16:36:48.451Z,1.60
2022-08-27T16:42:53.466Z,1.15
2022-08-27T16:49:14.667Z,1.20
2022-08-27T16:55:19.394Z,1.35
2022-08-27T17:01:24.833Z,1.55
2022-08-27T17:07:28.537Z,1.23
2022-08-27T17:13:33.957Z,1.10
2022-08-27T17:19:39.006Z,2.00
2022-08-27T17:25:42.380Z,1.35
2022-08-27T17:31:45.734Z,1.55
2022-08-27T17:37:50.437Z,1.25
2022-08-27T17:43:54.853Z,1.40
2022-08-27T17:49:58.461Z,1.30
2022-08-27T17:56:03.760Z,1.40
2022-08-27T18:02:07.172Z,1.10
2022-08-27T18:08:10.730Z,1.00
2022-08-27T18:14:18.503Z,1.02
2022-08-27T18:20:22.912Z,1.23
2022-08-27T18:26:29.819Z,1.08
2022-08-27T18:32:37.080Z,1.40
2022-08-27T18:38:40.794Z,1.25
2022-08-27T18:44:46.283Z,1.50
2022-08-27T18:50:54.432Z,1.17
2022-08-27T18:56:57.865Z,1.55
2022-08-27T19:03:01.771Z,1.10
2022-08-27T19:09:06.599Z,1.50
2022-08-27T19:15:11.920Z,1.38
2022-08-27T19:21:15.675Z,1.67
2022-08-27T19:27:24.788Z,1.30
2022-08-27T19:33:28.958Z,1.50
2022-08-27T19:39:33.984Z,1.88
2022-08-27T19:45:40.393Z,2.00
2022-08-27T19:51:43.962Z,1.42
2022-08-27T19:57:47.773Z,1.58
2022-08-27T20:03:52.596Z,1.50
2022-08-27T20:10:01.459Z,1.48
2022-08-27T20:16:13.624Z,1.77
2022-08-27T20:22:18.625Z,2.15
2022-08-27T20:28:38.423Z,1.83
2022-08-27T20:34:43.096Z,1.60
2022-08-27T20:40:47.871Z,1.63
2022-08-27T20:46:52.261Z,1.63
2022-08-27T20:52:55.968Z,1.88
2022-08-27T20:59:18.675Z,1.50
2022-08-27T21:05:22.066Z,1.58
2022-08-27T21:11:25.639Z,1.63
2022-08-27T21:17:30.873Z,1.70
2022-08-27T21:23:34.430Z,1.85
2022-08-27T21:29:37.798Z,2.05
2022-08-27T21:35:42.558Z,2.22
2022-08-27T21:41:46.577Z,1.92
2022-08-27T21:47:52.571Z,1.60
2022-08-27T21:53:57.424Z,2.00
2022-08-27T22:00:06.097Z,2.00
2022-08-27T22:06:11.296Z,2.13
2022-08-27T22:12:16.171Z,1.90
2022-08-27T22:18:19.862Z,1.70
2022-08-27T22:24:26.481Z,2.10
2022-08-27T22:30:31.228Z,2.70
2022-08-27T22:36:34.883Z,2.10
2022-08-27T22:42:38.589Z,2.30
2022-08-27T22:48:43.307Z,2.25
2022-08-27T22:54:47.512Z,2.28
2022-08-27T23:00:52.727Z,2.13
2022-08-27T23:06:57.539Z,2.08
2022-08-27T23:13:00.891Z,2.50
2022-08-27T23:19:04.681Z,2.45
2022-08-27T23:25:28.125Z,2.10
2022-08-27T23:31:31.513Z,2.38
2022-08-27T23:37:35.707Z,3.05
2022-08-27T23:43:40.505Z,2.80
2022-08-27T23:49:44.298Z,2.40
2022-08-27T23:55:47.854Z,2.40
